createdAt,value
2019-03-24T00:00:59.280Z,29.60
2019-03-24T00:01:59.258Z,29.60
2019-03-24T00:02:59.253Z,32.70
2019-03-24T00:03:59.238Z,31.80
2019-03-24T00:04:59.234Z,30.20
2019-03-24T00:05:59.217Z,24.90
2019-03-24T00:06:59.212Z,24.40
2019-03-24T00:07:59.226Z,32.90
2019-03-24T00:08:59.188Z,28.80
2019-03-24T00:09:59.188Z,30.70
2019-03-24T00:10:59.155Z,28.80
2019-03-24T00:11:59.156Z,27.90
2019-03-24T00:12:59.173Z,29.20
2019-03-24T00:13:59.130Z,28.70
2019-03-24T00:14:59.114Z,31.50
2019-03-24T00:15:59.117Z,28.00
2019-03-24T00:16:59.103Z,29.20
2019-03-24T00:17:59.094Z,28.80
2019-03-24T00:18:59.076Z,31.50
2019-03-24T00:19:59.065Z,31.40
2019-03-24T00:20:59.047Z,29.40
2019-03-24T00:23:15.569Z,21.50
2019-03-24T00:24:15.551Z,27.20
2019-03-24T00:25:15.542Z,28.50
2019-03-24T00:26:15.529Z,26.70
2019-03-24T00:27:15.519Z,28.90
2019-03-24T00:28:15.519Z,29.50
2019-03-24T00:29:15.499Z,25.70
2019-03-24T00:30:15.492Z,23.70
2019-03-24T00:31:15.477Z,28.50
2019-03-24T00:32:15.469Z,25.50
2019-03-24T00:33:15.464Z,26.00
2019-03-24T00:34:15.444Z,29.20
2019-03-24T00:35:15.446Z,25.00
2019-03-24T00:36:15.426Z,28.20
2019-03-24T00:37:15.412Z,26.10
2019-03-24T00:38:15.410Z,24.90
2019-03-24T00:39:15.392Z,22.00
2019-03-24T00:40:15.381Z,23.20
2019-03-24T00:41:15.383Z,20.80
2019-03-24T00:42:15.359Z,24.00
2019-03-24T00:43:15.361Z,24.10
2019-03-24T00:44:15.339Z,25.10
2019-03-24T00:45:15.328Z,25.40
2019-03-24T00:46:15.319Z,23.70
2019-03-24T00:47:15.303Z,23.00
2019-03-24T00:48:15.304Z,20.50
2019-03-24T00:49:15.282Z,22.20
2019-03-24T00:50:15.270Z,22.80
2019-03-24T00:51:15.262Z,20.00
2019-03-24T00:52:15.249Z,20.50
2019-03-24T00:53:15.251Z,21.50
2019-03-24T00:54:15.227Z,25.50
2019-03-24T00:55:15.216Z,20.50
2019-03-24T00:56:15.211Z,22.40
2019-03-24T00:57:15.196Z,23.20
2019-03-24T00:58:15.203Z,22.00
2019-03-24T00:59:15.172Z,23.50
2019-03-24T01:00:15.162Z,20.80
2019-03-24T01:01:15.153Z,20.60
2019-03-24T01:02:15.146Z,22.70
2019-03-24T01:03:15.154Z,22.90
2019-03-24T01:04:15.121Z,20.60
2019-03-24T01:05:15.108Z,24.00
2019-03-24T01:06:15.098Z,19.50
2019-03-24T01:07:15.088Z,21.10
2019-03-24T01:08:15.096Z,23.90
2019-03-24T01:09:15.068Z,19.30
2019-03-24T01:10:15.057Z,15.40
2019-03-24T01:11:15.047Z,17.20
2019-03-24T01:12:15.035Z,21.00
2019-03-24T01:13:15.034Z,20.30
2019-03-24T01:14:15.012Z,24.40
2019-03-24T01:15:15.019Z,22.20
2019-03-24T01:16:14.993Z,19.50
2019-03-24T01:17:14.984Z,19.60
2019-03-24T01:18:14.969Z,19.10
2019-03-24T01:19:14.981Z,19.50
2019-03-24T01:20:14.950Z,21.10
2019-03-24T01:21:14.939Z,19.80
2019-03-24T01:22:14.932Z,15.00
2019-03-24T01:23:14.925Z,17.10
2019-03-24T01:24:14.919Z,17.00
2019-03-24T01:25:14.895Z,16.10
2019-03-24T01:26:14.899Z,19.60
2019-03-24T01:27:14.874Z,17.50
2019-03-24T01:28:14.871Z,17.30
2019-03-24T01:29:14.864Z,16.30
2019-03-24T01:30:14.842Z,17.30
2019-03-24T01:31:14.832Z,14.20
2019-03-24T01:32:14.825Z,18.50
2019-03-24T01:33:14.813Z,19.20
2019-03-24T01:34:14.818Z,17.60
2019-03-24T01:35:14.790Z,18.90
2019-03-24T01:36:14.782Z,15.20
2019-03-24T01:37:14.770Z,16.20
2019-03-24T01:38:14.763Z,14.90
2019-03-24T01:39:14.756Z,17.30
2019-03-24T01:40:14.745Z,18.40
2019-03-24T01:41:14.725Z,16.60
2019-03-24T01:42:14.720Z,19.50
2019-03-24T01:43:14.713Z,18.10
2019-03-24T01:44:14.702Z,17.40
2019-03-24T01:45:14.684Z,17.60
2019-03-24T01:46:14.670Z,17.80
2019-03-24T01:47:14.662Z,15.50
2019-03-24T01:48:14.649Z,15.90
2019-03-24T01:49:14.654Z,12.70
2019-03-24T01:50:14.630Z,18.80
2019-03-24T01:51:14.621Z,18.20
2019-03-24T01:52:14.620Z,16.90
2019-03-24T01:53:14.597Z,19.90
2019-03-24T01:54:14.597Z,13.40
2019-03-24T01:55:14.575Z,15.50
2019-03-24T01:56:14.565Z,16.60
2019-03-24T01:57:14.557Z,18.90
2019-03-24T01:58:14.544Z,20.70
2019-03-24T01:59:14.541Z,19.50
2019-03-24T02:00:14.521Z,20.40
2019-03-24T02:01:14.513Z,17.90
2019-03-24T02:02:14.499Z,18.00
2019-03-24T02:03:14.494Z,17.40
2019-03-24T02:04:14.491Z,16.70
2019-03-24T02:05:14.471Z,20.10
2019-03-24T02:06:14.456Z,16.20
2019-03-24T02:07:14.450Z,18.70
2019-03-24T02:08:14.437Z,18.20
2019-03-24T02:09:14.443Z,17.60
2019-03-24T02:10:14.415Z,21.40
2019-03-24T02:11:14.407Z,18.30
2019-03-24T02:12:14.394Z,18.60
2019-03-24T02:13:14.422Z,23.00
2019-03-24T02:14:14.380Z,20.90
2019-03-24T02:15:14.366Z,18.10
2019-03-24T02:16:14.355Z,20.10
2019-03-24T02:17:14.339Z,19.40
2019-03-24T02:18:14.330Z,17.50
2019-03-24T02:19:14.327Z,21.70
2019-03-24T02:20:14.309Z,17.40
2019-03-24T02:21:14.301Z,20.00
2019-03-24T02:22:14.286Z,16.80
2019-03-24T02:23:14.275Z,18.10
2019-03-24T02:24:14.298Z,20.30
2019-03-24T02:25:14.259Z,18.90
2019-03-24T02:26:14.241Z,21.40
2019-03-24T02:27:14.231Z,20.90
2019-03-24T02:28:14.221Z,15.70
2019-03-24T02:29:14.224Z,18.30
2019-03-24T02:30:14.208Z,19.80
2019-03-24T02:31:14.187Z,21.90
2019-03-24T02:32:14.181Z,18.90
2019-03-24T02:33:14.174Z,22.20
2019-03-24T02:34:14.159Z,18.10
2019-03-24T02:35:14.162Z,18.70
2019-03-24T02:36:14.134Z,17.70
2019-03-24T02:37:14.128Z,17.40
2019-03-24T02:38:14.111Z,15.10
2019-03-24T02:39:14.102Z,20.30
2019-03-24T02:40:14.101Z,17.40
2019-03-24T02:41:14.082Z,22.30
2019-03-24T02:42:14.073Z,16.20
2019-03-24T02:43:14.060Z,16.90
2019-03-24T02:44:14.048Z,15.50
2019-03-24T02:45:14.047Z,16.70
2019-03-24T02:46:24.254Z,17.40
2019-03-24T02:47:15.018Z,15.60
2019-03-24T02:48:14.015Z,14.90
2019-03-24T02:49:13.994Z,17.40
2019-03-24T02:50:13.993Z,15.40
2019-03-24T02:51:13.975Z,15.20
2019-03-24T02:52:13.962Z,13.10
2019-03-24T02:53:13.951Z,16.00
2019-03-24T02:54:13.941Z,17.30
2019-03-24T02:55:13.949Z,13.60
2019-03-24T02:56:13.933Z,16.10
2019-03-24T02:57:13.913Z,13.30
2019-03-24T02:58:13.897Z,13.90
2019-03-24T02:59:13.893Z,13.30
2019-03-24T03:00:13.906Z,16.50
2019-03-24T03:01:13.867Z,12.60
2019-03-24T03:02:13.859Z,14.90
2019-03-24T03:03:13.859Z,12.80
2019-03-24T03:04:13.832Z,14.50
2019-03-24T03:05:13.832Z,12.80
2019-03-24T03:06:13.813Z,12.50
2019-03-24T03:07:13.800Z,19.10
2019-03-24T03:08:13.797Z,15.80
2019-03-24T03:09:13.869Z,13.20
2019-03-24T03:10:13.781Z,9.80
2019-03-24T03:11:13.765Z,16.30
2019-03-24T03:12:13.748Z,13.90
2019-03-24T03:13:13.741Z,12.70
2019-03-24T03:14:13.727Z,13.60
2019-03-24T03:15:13.724Z,12.50
2019-03-24T03:16:13.704Z,13.10
2019-03-24T03:17:13.696Z,13.30
2019-03-24T03:18:13.684Z,10.00
2019-03-24T03:19:13.673Z,13.80
2019-03-24T03:20:13.672Z,12.20
2019-03-24T03:21:13.649Z,10.10
2019-03-24T03:22:13.640Z,12.40
2019-03-24T03:23:13.635Z,10.20
2019-03-24T03:24:13.620Z,10.50
2019-03-24T03:25:13.630Z,10.70
2019-03-24T03:26:13.596Z,10.40
2019-03-24T03:27:13.587Z,13.90
2019-03-24T03:28:13.577Z,12.00
2019-03-24T03:29:13.564Z,9.40
2019-03-24T03:30:13.564Z,11.40
2019-03-24T03:31:13.575Z,12.10
2019-03-24T03:32:13.535Z,12.80
2019-03-24T03:33:13.538Z,13.30
2019-03-24T03:34:13.537Z,11.60
2019-03-24T03:35:13.500Z,11.30
2019-03-24T03:36:13.509Z,12.50
2019-03-24T03:37:13.480Z,12.00
2019-03-24T03:38:13.469Z,16.60
2019-03-24T03:39:13.485Z,9.70
2019-03-24T03:40:13.448Z,16.90
2019-03-24T03:41:13.449Z,14.00
2019-03-24T03:42:13.431Z,9.30
2019-03-24T03:43:13.418Z,10.60
2019-03-24T03:44:13.406Z,9.80
2019-03-24T03:45:13.401Z,9.50
2019-03-24T03:46:13.393Z,10.00
2019-03-24T03:47:13.373Z,10.00
2019-03-24T03:48:13.364Z,15.80
2019-03-24T03:49:13.354Z,11.30
2019-03-24T03:50:13.337Z,10.90
2019-03-24T03:51:13.339Z,9.40
2019-03-24T03:52:13.363Z,12.20
2019-03-24T03:53:13.314Z,13.30
2019-03-24T03:54:13.296Z,9.90
2019-03-24T03:55:13.288Z,12.60
2019-03-24T03:56:13.285Z,13.10
2019-03-24T03:57:13.264Z,13.70
2019-03-24T03:58:13.259Z,10.30
2019-03-24T03:59:13.245Z,13.20
2019-03-24T04:00:13.233Z,13.80
2019-03-24T04:01:13.232Z,12.40
2019-03-24T04:02:13.210Z,11.00
2019-03-24T04:03:13.203Z,11.60
2019-03-24T04:04:13.190Z,11.30
2019-03-24T04:05:13.178Z,9.40
2019-03-24T04:06:13.180Z,11.30
2019-03-24T04:07:13.157Z,9.20
2019-03-24T04:08:13.151Z,10.00
2019-03-24T04:09:13.142Z,11.00
2019-03-24T04:10:13.127Z,15.10
2019-03-24T04:11:13.123Z,10.00
2019-03-24T04:12:13.102Z,7.20
2019-03-24T04:13:13.094Z,9.00
2019-03-24T04:14:13.081Z,11.00
2019-03-24T04:15:13.078Z,14.00
2019-03-24T04:16:13.077Z,10.70
2019-03-24T04:17:13.051Z,11.10
2019-03-24T04:18:13.041Z,13.20
2019-03-24T04:19:13.056Z,8.90
2019-03-24T04:20:13.018Z,10.60
2019-03-24T04:21:13.020Z,11.70
2019-03-24T04:22:12.997Z,12.70
2019-03-24T04:23:12.992Z,12.10
2019-03-24T04:24:12.978Z,12.20
2019-03-24T04:25:12.973Z,12.00
2019-03-24T04:26:12.966Z,15.00
2019-03-24T04:27:12.943Z,10.90
2019-03-24T04:28:12.932Z,13.60
2019-03-24T04:29:12.930Z,8.30
2019-03-24T04:30:12.913Z,13.40
2019-03-24T04:31:12.926Z,14.50
2019-03-24T04:32:12.889Z,13.80
2019-03-24T04:33:12.876Z,11.20
2019-03-24T04:34:12.877Z,10.40
2019-03-24T04:35:12.860Z,12.80
2019-03-24T04:36:12.855Z,10.50
2019-03-24T04:37:12.836Z,10.30
2019-03-24T04:38:12.829Z,13.30
2019-03-24T04:39:12.820Z,14.40
2019-03-24T04:40:12.803Z,11.30
2019-03-24T04:41:12.815Z,10.70
2019-03-24T04:42:12.782Z,10.80
2019-03-24T04:43:12.777Z,11.80
2019-03-24T04:44:12.759Z,14.30
2019-03-24T04:45:12.748Z,12.60
2019-03-24T04:46:12.741Z,13.10
2019-03-24T04:47:16.834Z,8.80
2019-03-24T04:48:12.718Z,10.00
2019-03-24T04:49:12.725Z,11.10
2019-03-24T04:50:12.695Z,12.80
2019-03-24T04:51:12.685Z,16.40
2019-03-24T04:52:12.684Z,9.10
2019-03-24T04:53:12.666Z,12.10
2019-03-24T04:54:12.659Z,12.60
2019-03-24T04:55:12.643Z,10.50
2019-03-24T04:56:12.632Z,8.60
2019-03-24T04:57:12.633Z,12.30
2019-03-24T04:58:12.609Z,13.50
2019-03-24T04:59:12.604Z,11.90
2019-03-24T05:00:12.595Z,12.40
2019-03-24T05:01:12.580Z,11.20
2019-03-24T05:02:12.578Z,17.20
2019-03-24T05:03:12.557Z,11.80
2019-03-24T05:04:12.547Z,13.00
2019-03-24T05:05:12.543Z,11.20
2019-03-24T05:06:13.301Z,10.80
2019-03-24T05:07:12.528Z,14.50
2019-03-24T05:08:12.506Z,9.10
2019-03-24T05:09:12.496Z,10.50
2019-03-24T05:10:12.485Z,10.70
2019-03-24T05:11:12.472Z,18.40
2019-03-24T05:12:12.477Z,13.30
2019-03-24T05:13:12.452Z,18.10
2019-03-24T05:14:12.440Z,10.80
2019-03-24T05:15:12.428Z,17.30
2019-03-24T05:16:12.418Z,14.30
2019-03-24T05:17:12.417Z,16.70
2019-03-24T05:18:12.403Z,12.60
2019-03-24T05:19:12.386Z,13.40
2019-03-24T05:20:12.377Z,14.50
2019-03-24T05:21:12.363Z,12.60
2019-03-24T05:22:12.366Z,18.30
2019-03-24T05:23:12.349Z,12.10
2019-03-24T05:24:12.334Z,12.80
2019-03-24T05:25:12.325Z,16.20
2019-03-24T05:26:12.311Z,10.60
2019-03-24T05:27:12.310Z,10.60
2019-03-24T05:28:12.290Z,14.00
2019-03-24T05:29:12.276Z,14.00
2019-03-24T05:30:12.268Z,14.50
2019-03-24T05:31:12.256Z,11.60
2019-03-24T05:32:12.260Z,12.40
2019-03-24T05:33:12.238Z,13.10
2019-03-24T05:34:12.224Z,14.40
2019-03-24T05:35:12.213Z,10.60
2019-03-24T05:36:12.201Z,10.00
2019-03-24T05:37:12.202Z,11.60
2019-03-24T05:38:12.181Z,11.30
2019-03-24T05:39:12.171Z,11.10
2019-03-24T05:40:12.160Z,9.90
2019-03-24T05:41:12.149Z,16.20
2019-03-24T05:42:12.149Z,12.40
2019-03-24T05:43:12.131Z,11.40
2019-03-24T05:44:12.117Z,13.40
2019-03-24T05:45:12.107Z,12.90
2019-03-24T05:46:12.098Z,12.40
2019-03-24T05:47:12.097Z,8.90
2019-03-24T05:48:12.073Z,9.10
2019-03-24T05:49:12.062Z,12.30
2019-03-24T05:50:12.051Z,11.70
2019-03-24T05:51:12.043Z,14.10
2019-03-24T05:52:12.043Z,12.80
2019-03-24T05:53:12.025Z,11.90
2019-03-24T05:54:12.017Z,11.70
2019-03-24T05:55:12.002Z,10.90
2019-03-24T05:56:11.991Z,9.10
2019-03-24T05:57:11.983Z,11.60
2019-03-24T05:58:11.981Z,9.80
2019-03-24T05:59:11.956Z,13.30
2019-03-24T06:00:11.947Z,9.60
2019-03-24T06:01:11.935Z,9.90
2019-03-24T06:02:11.927Z,13.20
2019-03-24T06:03:11.928Z,9.90
2019-03-24T06:04:11.906Z,13.30
2019-03-24T06:05:11.895Z,9.70
2019-03-24T06:06:11.887Z,9.20
2019-03-24T06:07:11.872Z,14.50
2019-03-24T06:08:11.872Z,17.80
2019-03-24T06:09:11.849Z,9.10
2019-03-24T06:10:11.843Z,8.90
2019-03-24T06:11:11.831Z,12.80
2019-03-24T06:12:11.817Z,13.90
2019-03-24T06:13:11.819Z,11.30
2019-03-24T06:14:11.796Z,15.00
2019-03-24T06:15:11.786Z,9.30
2019-03-24T06:16:11.777Z,10.10
2019-03-24T06:17:11.764Z,9.00
2019-03-24T06:18:11.767Z,12.50
2019-03-24T06:19:11.743Z,9.90
2019-03-24T06:20:11.732Z,9.50
2019-03-24T06:21:11.723Z,10.40
2019-03-24T06:22:11.708Z,11.80
2019-03-24T06:23:20.375Z,8.90
2019-03-24T06:24:11.710Z,8.90
2019-03-24T06:25:11.681Z,13.90
2019-03-24T06:26:11.667Z,9.10
2019-03-24T06:27:11.656Z,8.20
2019-03-24T06:28:11.655Z,10.30
2019-03-24T06:29:11.645Z,12.10
2019-03-24T06:30:11.630Z,8.10
2019-03-24T06:31:11.612Z,8.50
2019-03-24T06:32:11.603Z,14.40
2019-03-24T06:33:11.609Z,9.40
2019-03-24T06:34:11.585Z,6.20
2019-03-24T06:35:11.580Z,10.70
2019-03-24T06:36:11.564Z,9.40
2019-03-24T06:37:11.550Z,10.10
2019-03-24T06:38:11.546Z,6.50
2019-03-24T06:39:11.526Z,11.50
2019-03-24T06:40:11.518Z,10.10
2019-03-24T06:41:11.507Z,10.40
2019-03-24T06:42:11.494Z,8.60
2019-03-24T06:43:11.546Z,8.20
2019-03-24T06:44:11.476Z,8.60
2019-03-24T06:45:11.464Z,8.70
2019-03-24T06:46:11.453Z,9.50
2019-03-24T06:47:11.441Z,5.90
2019-03-24T06:48:11.443Z,6.30
2019-03-24T06:49:11.427Z,12.40
2019-03-24T06:50:11.409Z,11.60
2019-03-24T06:51:11.405Z,11.00
2019-03-24T06:52:11.390Z,8.60
2019-03-24T06:53:11.430Z,8.70
2019-03-24T06:54:11.365Z,14.00
2019-03-24T06:55:11.355Z,9.80
2019-03-24T06:56:11.343Z,6.90
2019-03-24T06:57:11.342Z,8.50
2019-03-24T06:58:11.354Z,12.20
2019-03-24T06:59:11.312Z,7.30
2019-03-24T07:00:11.304Z,9.10
2019-03-24T07:01:11.289Z,7.10
2019-03-24T07:02:11.280Z,8.20
2019-03-24T07:03:11.272Z,12.20
2019-03-24T07:04:11.265Z,13.80
2019-03-24T07:05:11.247Z,10.40
2019-03-24T07:06:11.242Z,6.50
2019-03-24T07:07:11.227Z,8.70
2019-03-24T07:08:11.216Z,8.60
2019-03-24T07:09:11.213Z,6.70
2019-03-24T07:10:11.193Z,8.00
2019-03-24T07:11:13.641Z,8.70
2019-03-24T07:12:11.170Z,7.90
2019-03-24T07:13:11.157Z,7.10
2019-03-24T07:14:11.174Z,5.90
2019-03-24T07:15:11.138Z,6.60
2019-03-24T07:16:11.139Z,9.30
2019-03-24T07:17:11.114Z,8.50
2019-03-24T07:18:11.106Z,7.10
2019-03-24T07:19:11.103Z,7.90
2019-03-24T07:20:11.084Z,6.50
2019-03-24T07:21:11.071Z,8.30
2019-03-24T07:22:11.062Z,2.80
2019-03-24T07:23:11.050Z,5.10
2019-03-24T07:24:11.053Z,8.40
2019-03-24T07:25:11.036Z,9.10
2019-03-24T07:26:11.019Z,4.90
2019-03-24T07:27:11.008Z,5.50
2019-03-24T07:28:10.998Z,7.20
2019-03-24T07:29:10.997Z,7.10
2019-03-24T07:30:10.977Z,5.80
2019-03-24T07:31:10.972Z,8.80
2019-03-24T07:32:10.954Z,6.50
2019-03-24T07:33:10.946Z,7.10
2019-03-24T07:34:10.943Z,6.30
2019-03-24T07:35:10.926Z,4.40
2019-03-24T07:36:10.919Z,7.40
2019-03-24T07:37:10.902Z,7.60
2019-03-24T07:38:10.890Z,5.40
2019-03-24T07:39:10.892Z,6.40
2019-03-24T07:40:10.874Z,5.00
2019-03-24T07:41:10.863Z,8.40
2019-03-24T07:42:10.846Z,7.00
2019-03-24T07:43:10.837Z,6.90
2019-03-24T07:44:10.839Z,8.00
2019-03-24T07:45:10.820Z,7.10
2019-03-24T07:46:10.803Z,5.10
2019-03-24T07:47:10.800Z,7.50
2019-03-24T07:48:18.661Z,7.60
2019-03-24T07:49:11.784Z,6.80
2019-03-24T07:50:10.759Z,7.90
2019-03-24T07:51:10.753Z,6.40
2019-03-24T07:52:10.739Z,6.50
2019-03-24T07:53:11.172Z,4.60
2019-03-24T07:54:10.730Z,12.50
2019-03-24T07:55:10.706Z,12.10
2019-03-24T07:56:10.702Z,7.00
2019-03-24T07:57:10.694Z,6.80
2019-03-24T07:58:10.675Z,7.50
2019-03-24T07:59:10.682Z,8.10
2019-03-24T08:00:10.659Z,6.10
2019-03-24T08:01:10.641Z,6.80
2019-03-24T08:02:10.634Z,8.90
2019-03-24T08:03:10.620Z,10.10
2019-03-24T08:04:10.635Z,5.70
2019-03-24T08:05:10.599Z,10.10
2019-03-24T08:06:11.404Z,5.30
2019-03-24T08:07:10.604Z,10.80
2019-03-24T08:08:11.361Z,8.60
2019-03-24T08:09:10.559Z,7.00
2019-03-24T08:10:10.562Z,6.20
2019-03-24T08:11:10.543Z,5.50
2019-03-24T08:12:10.566Z,6.70
2019-03-24T08:13:10.643Z,8.10
2019-03-24T08:14:10.504Z,6.50
2019-03-24T08:15:10.502Z,10.10
2019-03-24T08:16:10.482Z,4.70
2019-03-24T08:17:10.472Z,5.50
2019-03-24T08:18:10.466Z,7.30
2019-03-24T08:19:10.468Z,6.80
2019-03-24T08:20:12.337Z,4.60
2019-03-24T08:21:10.431Z,8.00
2019-03-24T08:22:11.370Z,9.60
2019-03-24T08:23:10.417Z,6.80
2019-03-24T08:24:10.399Z,7.80
2019-03-24T08:25:10.403Z,5.50
2019-03-24T08:26:10.377Z,7.60
2019-03-24T08:27:10.365Z,5.80
2019-03-24T08:28:10.358Z,6.80
2019-03-24T08:29:10.345Z,8.30
2019-03-24T08:30:10.348Z,6.50
2019-03-24T08:31:10.324Z,6.50
2019-03-24T08:32:10.313Z,8.00
2019-03-24T08:33:10.302Z,6.70
2019-03-24T08:34:10.296Z,8.60
2019-03-24T08:35:10.292Z,9.20
2019-03-24T08:36:10.269Z,5.90
2019-03-24T08:37:10.258Z,8.80
2019-03-24T08:38:10.248Z,5.30
2019-03-24T08:39:10.238Z,7.20
2019-03-24T08:40:10.241Z,7.70
2019-03-24T08:41:10.219Z,4.60
2019-03-24T08:42:10.221Z,5.80
2019-03-24T08:43:10.195Z,8.40
2019-03-24T08:44:10.185Z,7.70
2019-03-24T08:45:10.190Z,5.90
2019-03-24T08:46:10.165Z,6.90
2019-03-24T08:47:10.156Z,8.90
2019-03-24T08:48:10.144Z,7.50
2019-03-24T08:49:10.133Z,7.70
2019-03-24T08:50:10.131Z,5.40
2019-03-24T08:51:10.119Z,6.30
2019-03-24T08:52:10.099Z,8.00
2019-03-24T08:53:10.089Z,7.30
2019-03-24T08:54:10.078Z,6.40
2019-03-24T08:55:10.092Z,8.90
2019-03-24T08:56:10.098Z,4.20
2019-03-24T08:57:10.047Z,6.80
2019-03-24T08:58:10.040Z,5.30
2019-03-24T08:59:10.030Z,8.20
2019-03-24T09:00:10.031Z,6.70
2019-03-24T09:01:10.014Z,9.30
2019-03-24T09:02:09.994Z,7.90
2019-03-24T09:03:10.149Z,9.00
2019-03-24T09:04:09.976Z,9.80
2019-03-24T09:05:09.989Z,9.70
2019-03-24T09:06:09.955Z,6.50
2019-03-24T09:07:09.944Z,7.10
2019-03-24T09:08:09.933Z,5.50
2019-03-24T09:09:09.938Z,6.60
2019-03-24T09:10:09.913Z,6.10
2019-03-24T09:11:09.956Z,7.00
2019-03-24T09:12:09.891Z,8.30
2019-03-24T09:13:09.880Z,7.80
2019-03-24T09:14:09.872Z,6.00
2019-03-24T09:15:09.860Z,6.20
2019-03-24T09:16:09.877Z,6.80
2019-03-24T09:17:09.848Z,7.70
2019-03-24T09:18:09.827Z,5.80
2019-03-24T09:19:09.818Z,4.80
2019-03-24T09:20:09.812Z,6.50
2019-03-24T09:21:09.811Z,5.40
2019-03-24T09:22:09.786Z,5.40
2019-03-24T09:23:10.717Z,6.50
2019-03-24T09:24:09.761Z,8.00
2019-03-24T09:25:09.757Z,8.90
2019-03-24T09:26:09.753Z,6.70
2019-03-24T09:27:09.732Z,5.90
2019-03-24T09:28:09.720Z,6.60
2019-03-24T09:29:09.710Z,4.30
2019-03-24T09:30:09.697Z,6.00
2019-03-24T09:31:09.702Z,6.60
2019-03-24T09:32:09.677Z,7.20
2019-03-24T09:33:09.676Z,4.60
2019-03-24T09:34:09.665Z,6.30
2019-03-24T09:35:09.647Z,7.90
2019-03-24T09:36:09.645Z,9.60
2019-03-24T09:37:09.631Z,6.10
2019-03-24T09:38:09.618Z,7.50
2019-03-24T09:39:09.604Z,11.10
2019-03-24T09:40:09.591Z,7.20
2019-03-24T09:41:09.589Z,8.80
2019-03-24T09:42:10.402Z,5.50
2019-03-24T09:43:09.560Z,13.20
2019-03-24T09:44:09.548Z,4.80
2019-03-24T09:45:09.539Z,5.70
2019-03-24T09:46:09.542Z,5.20
2019-03-24T09:47:09.518Z,5.80
2019-03-24T09:48:09.507Z,13.60
2019-03-24T09:49:09.498Z,8.20
2019-03-24T09:50:09.487Z,8.20
2019-03-24T09:51:09.482Z,11.20
2019-03-24T09:52:09.465Z,5.90
2019-03-24T09:53:09.456Z,5.60
2019-03-24T09:54:09.445Z,6.00
2019-03-24T09:55:09.436Z,5.50
2019-03-24T09:56:09.430Z,4.00
2019-03-24T09:57:09.412Z,4.40
2019-03-24T09:58:09.401Z,6.60
2019-03-24T09:59:09.407Z,5.20
2019-03-24T10:00:09.384Z,5.50
2019-03-24T10:01:09.378Z,3.80
2019-03-24T10:02:09.357Z,6.60
2019-03-24T10:03:09.348Z,7.10
2019-03-24T10:04:09.342Z,5.00
2019-03-24T10:05:09.333Z,4.30
2019-03-24T10:06:09.331Z,7.30
2019-03-24T10:07:09.304Z,4.90
2019-03-24T10:08:09.298Z,5.80
2019-03-24T10:09:09.283Z,7.50
2019-03-24T10:10:09.270Z,6.50
2019-03-24T10:11:09.274Z,29.80
2019-03-24T10:12:09.256Z,14.80
2019-03-24T10:13:09.244Z,19.40
2019-03-24T10:14:09.331Z,55.60
2019-03-24T10:15:09.225Z,6.70
2019-03-24T10:16:09.265Z,12.00
2019-03-24T10:17:09.215Z,14.00
2019-03-24T10:18:09.204Z,13.30
2019-03-24T10:19:14.075Z,9.70
2019-03-24T10:20:10.168Z,4.50
2019-03-24T10:21:09.157Z,5.80
2019-03-24T10:22:09.159Z,6.10
2019-03-24T10:23:09.162Z,5.60
2019-03-24T10:24:09.148Z,5.70
2019-03-24T10:25:09.117Z,7.20
2019-03-24T10:26:09.131Z,8.50
2019-03-24T10:27:09.109Z,7.20
2019-03-24T10:28:09.083Z,6.00
2019-03-24T10:29:09.081Z,6.40
2019-03-24T10:30:09.128Z,7.10
2019-03-24T10:31:09.079Z,4.40
2019-03-24T10:32:09.077Z,5.90
2019-03-24T10:33:09.036Z,5.50
2019-03-24T10:34:09.051Z,4.40
2019-03-24T10:35:09.028Z,4.10
2019-03-24T10:36:09.130Z,4.50
2019-03-24T10:37:09.010Z,6.40
2019-03-24T10:38:08.999Z,4.10
2019-03-24T10:39:08.976Z,5.40
2019-03-24T10:40:08.977Z,5.70
2019-03-24T10:41:09.018Z,4.50
2019-03-24T10:42:08.992Z,4.60
2019-03-24T10:43:08.941Z,5.30
2019-03-24T10:44:08.951Z,6.20
2019-03-24T10:45:08.919Z,8.00
2019-03-24T10:46:08.908Z,7.90
2019-03-24T10:47:08.914Z,3.80
2019-03-24T10:48:08.886Z,4.70
2019-03-24T10:49:08.884Z,5.70
2019-03-24T10:50:08.867Z,5.30
2019-03-24T10:51:08.860Z,5.70
2019-03-24T10:52:08.859Z,3.20
2019-03-24T10:53:08.846Z,4.30
2019-03-24T10:54:08.829Z,6.40
2019-03-24T10:55:08.828Z,5.10
2019-03-24T10:56:08.815Z,3.90
2019-03-24T10:57:08.845Z,4.90
2019-03-24T10:58:08.792Z,4.90
2019-03-24T10:59:08.784Z,10.20
2019-03-24T11:00:08.769Z,5.20
2019-03-24T11:01:08.762Z,6.40
2019-03-24T11:02:08.766Z,3.40
2019-03-24T11:03:08.747Z,5.90
2019-03-24T11:04:08.732Z,3.00
2019-03-24T11:05:08.729Z,7.50
2019-03-24T11:06:08.713Z,6.10
2019-03-24T11:07:09.078Z,5.80
2019-03-24T11:08:08.703Z,5.30
2019-03-24T11:09:08.683Z,7.50
2019-03-24T11:10:08.686Z,5.40
2019-03-24T11:11:08.678Z,3.60
2019-03-24T11:12:08.660Z,7.60
2019-03-24T11:13:08.654Z,3.40
2019-03-24T11:14:08.652Z,3.70
2019-03-24T11:15:08.651Z,4.90
2019-03-24T11:16:08.615Z,4.10
2019-03-24T11:17:08.624Z,6.30
2019-03-24T11:18:08.623Z,4.00
2019-03-24T11:19:08.590Z,3.60
2019-03-24T11:20:08.593Z,4.40
2019-03-24T11:21:08.942Z,3.80
2019-03-24T11:22:08.558Z,4.80
2019-03-24T11:23:08.587Z,5.80
2019-03-24T11:24:08.539Z,8.30
2019-03-24T11:25:08.527Z,3.60
2019-03-24T11:26:08.530Z,5.00
2019-03-24T11:27:08.507Z,3.90
2019-03-24T11:28:08.513Z,4.30
2019-03-24T11:29:08.498Z,4.40
2019-03-24T11:30:08.486Z,3.80
2019-03-24T11:31:08.473Z,4.40
2019-03-24T11:32:08.473Z,4.80
2019-03-24T11:33:08.476Z,5.20
2019-03-24T11:34:08.444Z,3.70
2019-03-24T11:35:08.438Z,6.50
2019-03-24T11:36:08.423Z,3.00
2019-03-24T11:37:08.413Z,4.00
2019-03-24T11:38:08.424Z,4.30
2019-03-24T11:39:08.391Z,3.80
2019-03-24T11:40:08.394Z,5.10
2019-03-24T11:41:08.379Z,6.70
2019-03-24T11:42:08.377Z,4.30
2019-03-24T11:43:08.365Z,3.00
2019-03-24T11:44:08.352Z,3.60
2019-03-24T11:45:08.340Z,3.50
2019-03-24T11:46:08.328Z,4.70
2019-03-24T11:47:08.344Z,3.80
2019-03-24T11:48:08.339Z,4.70
2019-03-24T11:49:08.304Z,5.20
2019-03-24T11:50:08.296Z,4.10
2019-03-24T11:51:08.281Z,8.20
2019-03-24T11:52:08.277Z,7.70
2019-03-24T11:53:08.275Z,5.30
2019-03-24T11:54:08.256Z,7.80
2019-03-24T11:55:08.255Z,5.60
2019-03-24T11:56:08.236Z,6.10
2019-03-24T11:57:08.238Z,9.50
2019-03-24T11:58:08.229Z,5.00
2019-03-24T11:59:08.211Z,4.20
2019-03-24T12:00:08.274Z,3.50
2019-03-24T12:01:08.201Z,5.40
2019-03-24T12:02:08.180Z,3.80
2019-03-24T12:03:08.182Z,3.60
2019-03-24T12:04:08.165Z,3.00
2019-03-24T12:05:08.152Z,3.90
2019-03-24T12:06:14.363Z,3.00
2019-03-24T12:07:09.145Z,3.40
2019-03-24T12:08:08.136Z,4.20
2019-03-24T12:09:08.112Z,4.20
2019-03-24T12:10:08.118Z,3.60
2019-03-24T12:11:08.093Z,3.60
2019-03-24T12:12:08.088Z,4.00
2019-03-24T12:13:08.102Z,5.00
2019-03-24T12:14:08.070Z,5.10
2019-03-24T12:15:08.102Z,3.20
2019-03-24T12:16:08.053Z,7.30
2019-03-24T12:17:08.035Z,5.70
2019-03-24T12:18:08.036Z,3.10
2019-03-24T12:19:08.019Z,5.40
2019-03-24T12:20:08.005Z,4.10
2019-03-24T12:21:08.000Z,5.90
2019-03-24T12:22:07.990Z,4.40
2019-03-24T12:23:07.974Z,4.10
2019-03-24T12:24:16.546Z,3.10
2019-03-24T12:25:07.945Z,4.50
2019-03-24T12:26:07.936Z,4.90
2019-03-24T12:27:07.925Z,7.20
2019-03-24T12:28:07.919Z,5.90
2019-03-24T12:29:07.915Z,2.70
2019-03-24T12:30:07.895Z,5.20
2019-03-24T12:31:07.884Z,4.00
2019-03-24T12:32:07.877Z,4.50
2019-03-24T12:33:07.866Z,4.60
2019-03-24T12:34:07.866Z,4.30
2019-03-24T12:35:07.844Z,4.90
2019-03-24T12:36:07.882Z,6.70
2019-03-24T12:37:07.826Z,5.10
2019-03-24T12:38:07.813Z,3.60
2019-03-24T12:39:07.813Z,3.30
2019-03-24T12:40:07.799Z,3.30
2019-03-24T12:41:07.871Z,3.20
2019-03-24T12:42:07.782Z,5.60
2019-03-24T12:43:18.687Z,3.30
2019-03-24T12:44:08.759Z,4.00
2019-03-24T12:45:07.795Z,6.50
2019-03-24T12:46:07.730Z,4.70
2019-03-24T12:47:07.723Z,2.70
2019-03-24T12:48:07.751Z,4.40
2019-03-24T12:49:07.710Z,5.10
2019-03-24T12:50:09.351Z,3.90
2019-03-24T12:51:07.677Z,5.80
2019-03-24T12:52:07.668Z,6.80
2019-03-24T12:53:07.657Z,4.90
2019-03-24T12:54:07.659Z,3.70
2019-03-24T12:55:07.634Z,5.80
2019-03-24T12:56:07.629Z,4.80
2019-03-24T12:57:07.616Z,4.40
2019-03-24T12:58:07.606Z,3.70
2019-03-24T12:59:07.607Z,5.40
2019-03-24T13:00:07.594Z,5.40
2019-03-24T13:01:07.571Z,3.60
2019-03-24T13:02:07.565Z,4.50
2019-03-24T13:03:07.552Z,5.40
2019-03-24T13:04:07.550Z,3.60
2019-03-24T13:05:07.536Z,5.90
2019-03-24T13:06:07.522Z,5.10
2019-03-24T13:07:07.510Z,5.10